createdAt,value
2023-02-17T00:01:31.310Z,142.40
2023-02-17T00:04:34.596Z,131.30
2023-02-17T00:07:37.548Z,123.90
2023-02-17T00:10:40.415Z,135.90
2023-02-17T00:13:43.545Z,124.65
2023-02-17T00:16:46.366Z,125.05
2023-02-17T00:19:49.813Z,134.85
2023-02-17T00:22:52.695Z,126.07
2023-02-17T00:25:55.535Z,121.40
2023-02-17T00:28:59.342Z,123.88
2023-02-17T00:32:02.519Z,124.35
2023-02-17T00:35:05.877Z,114.88
2023-02-17T00:38:08.743Z,124.80
2023-02-17T00:41:11.715Z,125.77
2023-02-17T00:44:20.442Z,119.53
2023-02-17T00:47:23.257Z,123.03
2023-02-17T00:50:26.192Z,115.32
2023-02-17T00:53:29.083Z,118.80
2023-02-17T00:56:31.945Z,119.67
2023-02-17T00:59:35.436Z,126.18
2023-02-17T01:02:38.262Z,115.07
2023-02-17T01:05:43.110Z,115.32
2023-02-17T01:08:46.112Z,115.63
2023-02-17T01:11:49.249Z,108.73
2023-02-17T01:14:52.216Z,117.93
2023-02-17T01:17:55.066Z,135.48
2023-02-17T01:20:58.179Z,132.18
2023-02-17T01:24:05.130Z,143.00
2023-02-17T01:27:08.132Z,135.50
2023-02-17T01:30:11.496Z,138.63
2023-02-17T01:33:14.599Z,125.65
2023-02-17T01:36:19.403Z,137.43
2023-02-17T01:39:22.313Z,134.03
2023-02-17T01:42:26.577Z,135.70
2023-02-17T01:45:34.924Z,130.63
2023-02-17T01:48:41.593Z,121.43
2023-02-17T01:51:47.151Z,107.63
2023-02-17T01:54:57.334Z,100.23
2023-02-17T01:58:03.577Z,106.30
2023-02-17T02:01:07.408Z,103.00
2023-02-17T02:04:12.000Z,104.30
2023-02-17T02:07:23.531Z,102.72
2023-02-17T02:10:26.476Z,97.63
2023-02-17T02:13:29.535Z,101.53
2023-02-17T02:16:44.134Z,103.68
2023-02-17T02:20:14.088Z,104.43
2023-02-17T02:23:34.733Z,92.88
2023-02-17T02:27:02.057Z,106.40
2023-02-17T02:30:48.870Z,104.40
2023-02-17T02:34:30.700Z,103.72
2023-02-17T02:37:38.599Z,100.90
2023-02-17T02:40:50.200Z,100.43
2023-02-17T02:43:53.332Z,103.63
2023-02-17T02:47:01.334Z,102.80
2023-02-17T02:50:05.492Z,100.40
2023-02-17T02:53:17.713Z,97.70
2023-02-17T02:56:27.337Z,115.13
2023-02-17T02:59:35.294Z,107.00
2023-02-17T03:03:05.150Z,105.80
2023-02-17T03:06:14.929Z,103.70
2023-02-17T03:09:29.081Z,112.22
2023-02-17T03:12:32.234Z,104.95
2023-02-17T03:15:35.642Z,116.50
2023-02-17T03:18:38.541Z,112.50
2023-02-17T03:21:51.426Z,149.18
2023-02-17T03:24:54.239Z,156.30
2023-02-17T03:27:57.437Z,140.38
2023-02-17T03:31:01.068Z,124.17
2023-02-17T03:34:04.497Z,128.53
2023-02-17T03:37:07.523Z,125.90
2023-02-17T03:40:10.761Z,122.07
2023-02-17T03:43:17.962Z,115.75
2023-02-17T03:46:21.492Z,116.93
2023-02-17T03:49:24.516Z,105.50
2023-02-17T03:52:27.314Z,93.30
2023-02-17T03:55:30.115Z,100.90
2023-02-17T03:58:33.538Z,101.78
2023-02-17T04:01:36.443Z,94.20
2023-02-17T04:04:39.355Z,91.00
2023-02-17T04:07:42.214Z,88.40
2023-02-17T04:10:45.317Z,88.35
2023-02-17T04:13:48.208Z,101.00
2023-02-17T04:16:51.020Z,95.73
2023-02-17T04:19:53.911Z,131.10
2023-02-17T04:22:56.782Z,148.30
2023-02-17T04:25:59.664Z,155.27
2023-02-17T04:29:05.239Z,125.03
2023-02-17T04:32:08.227Z,101.63
2023-02-17T04:35:11.228Z,93.40
2023-02-17T04:38:14.313Z,96.80
2023-02-17T04:41:17.205Z,98.15
2023-02-17T04:44:20.050Z,86.97
2023-02-17T04:47:23.145Z,100.90
2023-02-17T04:50:26.301Z,94.83
2023-02-17T04:53:29.064Z,100.72
2023-02-17T04:56:31.839Z,87.07
2023-02-17T04:59:34.881Z,84.18
2023-02-17T05:02:37.813Z,89.57
2023-02-17T05:05:40.604Z,90.07
2023-02-17T05:08:43.474Z,102.70
2023-02-17T05:11:46.287Z,89.70
2023-02-17T05:14:49.136Z,94.65
2023-02-17T05:17:52.011Z,93.00
2023-02-17T05:20:54.973Z,90.97
2023-02-17T05:23:57.842Z,92.10
2023-02-17T05:27:00.669Z,86.35
2023-02-17T05:30:04.091Z,89.75
2023-02-17T05:33:06.988Z,91.87
2023-02-17T05:36:12.113Z,96.53
2023-02-17T05:39:15.001Z,87.80
2023-02-17T05:42:17.848Z,96.75
2023-02-17T05:45:20.776Z,144.02
2023-02-17T05:48:23.553Z,127.93
2023-02-17T05:51:26.448Z,131.70
2023-02-17T05:54:29.254Z,134.48
2023-02-17T05:57:32.317Z,124.18
2023-02-17T06:00:35.357Z,119.07
2023-02-17T06:03:38.789Z,104.93
2023-02-17T06:06:41.786Z,93.83
2023-02-17T06:09:47.135Z,81.22
2023-02-17T06:12:50.403Z,71.38
2023-02-17T06:15:53.339Z,79.63
2023-02-17T06:18:56.201Z,72.70
2023-02-17T06:21:59.620Z,72.20
2023-02-17T06:25:02.587Z,77.05
2023-02-17T06:28:05.743Z,78.00
2023-02-17T06:31:08.578Z,75.75
2023-02-17T06:34:12.244Z,75.20
2023-02-17T06:37:15.204Z,77.00
2023-02-17T06:40:18.289Z,73.70
2023-02-17T06:43:21.139Z,77.82
2023-02-17T06:46:23.948Z,68.72
2023-02-17T06:50:26.324Z,71.67
2023-02-17T06:57:51.596Z,64.82
2023-02-17T07:00:54.597Z,63.22
2023-02-17T07:03:58.124Z,71.60
2023-02-17T07:07:02.174Z,68.53
2023-02-17T07:10:05.727Z,62.13
2023-02-17T07:13:10.209Z,59.30
2023-02-17T07:16:14.443Z,59.90
2023-02-17T07:19:17.464Z,55.15
2023-02-17T07:22:21.739Z,58.33
2023-02-17T07:25:24.594Z,76.23
2023-02-17T07:28:27.472Z,73.82
2023-02-17T07:31:31.350Z,62.40
2023-02-17T07:34:35.051Z,57.38
2023-02-17T07:37:38.029Z,56.05
2023-02-17T07:40:41.247Z,53.90
2023-02-17T07:43:45.118Z,58.13
2023-02-17T07:46:48.607Z,51.80
2023-02-17T07:49:51.658Z,55.25
2023-02-17T07:52:54.515Z,55.57
2023-02-17T07:55:57.496Z,60.57
2023-02-17T07:59:00.376Z,51.50
2023-02-17T08:02:03.917Z,47.03
2023-02-17T08:05:07.070Z,44.72
2023-02-17T08:08:28.346Z,50.07
2023-02-17T08:11:52.300Z,47.47
2023-02-17T08:14:58.307Z,43.58
2023-02-17T08:18:02.014Z,39.60
2023-02-17T08:21:05.529Z,42.00
2023-02-17T08:24:08.735Z,40.95
2023-02-17T08:27:12.145Z,38.47
2023-02-17T08:30:16.263Z,33.38
2023-02-17T08:33:20.568Z,33.88
2023-02-17T08:36:24.982Z,31.70
2023-02-17T08:39:28.551Z,33.50
2023-02-17T08:42:32.823Z,31.00
2023-02-17T08:45:37.252Z,31.92
2023-02-17T08:48:41.162Z,30.35
2023-02-17T08:51:45.277Z,23.40
2023-02-17T08:54:50.008Z,23.65
2023-02-17T08:57:54.906Z,26.53
2023-02-17T09:00:58.375Z,22.73
2023-02-17T09:04:26.170Z,23.67
2023-02-17T09:07:33.233Z,28.92
2023-02-17T09:10:36.273Z,24.35
2023-02-17T09:13:45.075Z,22.80
2023-02-17T09:16:50.807Z,20.27
2023-02-17T09:19:54.905Z,20.83
2023-02-17T09:23:00.406Z,21.88
2023-02-17T09:26:07.198Z,25.42
2023-02-17T09:29:10.740Z,21.13
2023-02-17T09:32:13.978Z,23.50
2023-02-17T09:35:18.837Z,23.20
2023-02-17T09:38:21.880Z,21.75
2023-02-17T09:41:32.510Z,23.48
2023-02-17T09:44:44.987Z,23.10
2023-02-17T09:47:55.423Z,24.05
2023-02-17T09:51:07.053Z,22.50
2023-02-17T09:54:22.814Z,22.27
2023-02-17T09:57:29.762Z,18.95
2023-02-17T10:00:45.771Z,19.73
2023-02-17T10:03:52.003Z,21.10
2023-02-17T10:07:02.885Z,19.45
2023-02-17T10:10:14.769Z,19.50
2023-02-17T10:13:23.107Z,20.63
2023-02-17T10:16:32.472Z,19.63
2023-02-17T10:19:45.289Z,20.20
2023-02-17T10:22:54.937Z,19.13
2023-02-17T10:26:16.557Z,18.45
2023-02-17T10:29:49.629Z,18.27
2023-02-17T10:32:52.752Z,15.30
2023-02-17T10:36:34.200Z,18.83
2023-02-17T10:39:55.285Z,18.38
2023-02-17T10:43:07.673Z,17.95
2023-02-17T10:46:15.635Z,20.95
2023-02-17T10:49:31.570Z,18.30
2023-02-17T10:52:39.649Z,19.45
2023-02-17T10:55:50.794Z,16.45
2023-02-17T10:59:06.565Z,22.77
2023-02-17T11:02:31.263Z,19.75
2023-02-17T11:05:35.091Z,17.67
2023-02-17T11:08:44.897Z,18.23
2023-02-17T11:11:58.702Z,16.60
2023-02-17T11:15:05.177Z,18.42
2023-02-17T11:18:20.612Z,19.33
2023-02-17T11:21:23.512Z,19.80
2023-02-17T11:24:28.941Z,16.45
2023-02-17T11:27:31.726Z,16.30
2023-02-17T11:30:36.110Z,25.70
2023-02-17T11:33:40.668Z,16.83
2023-02-17T11:36:49.204Z,19.20
2023-02-17T11:39:54.125Z,18.13
2023-02-17T11:43:02.707Z,16.83
2023-02-17T11:46:24.101Z,16.90
2023-02-17T11:49:56.258Z,17.17
2023-02-17T11:53:08.668Z,16.33
2023-02-17T11:56:17.752Z,18.35
2023-02-17T11:59:23.828Z,15.55
2023-02-17T12:02:40.301Z,19.45
2023-02-17T12:06:24.443Z,14.65
2023-02-17T12:09:27.512Z,15.80
2023-02-17T12:12:49.235Z,15.70
2023-02-17T12:16:10.706Z,13.90
2023-02-17T12:19:25.715Z,17.27
2023-02-17T12:22:41.960Z,16.83
2023-02-17T12:26:08.451Z,18.10
2023-02-17T12:29:54.137Z,15.48
2023-02-17T12:33:33.860Z,15.75
2023-02-17T12:36:39.626Z,16.52
2023-02-17T12:39:48.522Z,17.90
2023-02-17T12:43:06.197Z,18.67
2023-02-17T12:46:15.361Z,21.88
2023-02-17T12:49:32.285Z,20.77
2023-02-17T12:52:40.718Z,14.40
2023-02-17T12:55:50.731Z,16.02
2023-02-17T12:58:56.659Z,11.70
2023-02-17T13:02:07.571Z,16.73
2023-02-17T13:05:28.309Z,11.10
2023-02-17T13:08:42.842Z,15.30
2023-02-17T13:11:46.055Z,13.80
2023-02-17T13:14:50.606Z,19.40
2023-02-17T13:18:21.481Z,14.38
2023-02-17T13:21:27.690Z,8.75
2023-02-17T13:24:34.979Z,12.18
2023-02-17T13:27:39.965Z,13.07
2023-02-17T13:30:45.652Z,10.27
2023-02-17T13:33:54.602Z,13.25
2023-02-17T13:37:03.437Z,10.38
2023-02-17T13:40:22.686Z,12.48
2023-02-17T13:43:25.882Z,12.70
2023-02-17T13:46:31.139Z,14.40
2023-02-17T13:49:35.406Z,9.20
2023-02-17T13:52:38.460Z,13.70
2023-02-17T13:55:41.962Z,11.00
2023-02-17T13:58:45.065Z,10.65
2023-02-17T14:01:48.187Z,11.10
2023-02-17T14:04:53.895Z,13.88
2023-02-17T14:08:04.626Z,9.98
2023-02-17T14:11:18.602Z,10.48
2023-02-17T14:14:25.149Z,14.30
2023-02-17T14:17:32.722Z,13.40
2023-02-17T14:20:36.909Z,10.63
2023-02-17T14:23:42.890Z,10.85
2023-02-17T14:26:49.772Z,11.68
2023-02-17T14:29:52.626Z,24.15
2023-02-17T14:33:22.951Z,10.03
2023-02-17T14:36:38.078Z,11.20
2023-02-17T14:39:44.421Z,13.00
2023-02-17T14:42:47.831Z,8.63
2023-02-17T14:45:51.092Z,10.30
2023-02-17T14:48:54.910Z,8.40
2023-02-17T14:51:58.129Z,10.80
2023-02-17T14:55:01.158Z,8.40
2023-02-17T14:58:04.120Z,12.85
2023-02-17T15:01:07.586Z,9.85
2023-02-17T15:04:10.444Z,9.57
2023-02-17T15:07:16.542Z,11.00
2023-02-17T15:10:27.279Z,15.70
2023-02-17T15:13:31.902Z,11.02
2023-02-17T15:16:35.168Z,15.25
2023-02-17T15:19:38.323Z,13.20
2023-02-17T15:22:42.276Z,11.30
2023-02-17T15:25:45.880Z,13.13
2023-02-17T15:28:48.950Z,16.80
2023-02-17T15:31:53.565Z,18.17
2023-02-17T15:34:56.982Z,19.83
2023-02-17T15:37:59.851Z,30.50
2023-02-17T15:41:04.835Z,30.50
2023-02-17T15:44:15.542Z,22.15
2023-02-17T15:47:20.776Z,21.45
2023-02-17T15:50:24.169Z,21.90
2023-02-17T15:53:32.492Z,18.48
2023-02-17T15:56:44.967Z,18.35
2023-02-17T15:59:48.364Z,23.77
2023-02-17T16:02:52.124Z,28.55
2023-02-17T16:05:55.072Z,33.53
2023-02-17T16:09:01.266Z,31.65
2023-02-17T16:12:04.534Z,32.92
2023-02-17T16:15:11.741Z,45.80
2023-02-17T16:18:24.828Z,71.43
2023-02-17T16:21:28.214Z,74.70
2023-02-17T16:24:31.223Z,82.03
2023-02-17T16:27:34.075Z,75.30
2023-02-17T16:30:37.153Z,73.47
2023-02-17T16:33:40.146Z,56.92
2023-02-17T16:36:43.348Z,36.97
2023-02-17T16:39:46.743Z,38.40
2023-02-17T16:42:50.322Z,47.45
2023-02-17T16:46:02.886Z,46.40
2023-02-17T16:49:24.524Z,56.22
2023-02-17T16:52:28.150Z,45.33
2023-02-17T16:55:34.860Z,50.40
2023-02-17T16:58:37.944Z,46.33
2023-02-17T17:01:41.116Z,45.22
2023-02-17T17:04:44.271Z,38.55
2023-02-17T17:07:51.293Z,41.63
2023-02-17T17:10:54.263Z,42.25
2023-02-17T17:13:57.529Z,42.63
2023-02-17T17:17:02.273Z,41.72
2023-02-17T17:20:05.772Z,46.00
2023-02-17T17:23:13.630Z,61.43
2023-02-17T17:26:35.892Z,58.58
2023-02-17T17:29:38.925Z,45.58
2023-02-17T17:32:42.315Z,44.75
2023-02-17T17:35:45.475Z,45.85
2023-02-17T17:38:48.368Z,45.07
2023-02-17T17:41:52.705Z,52.80
2023-02-17T17:44:55.663Z,66.55
2023-02-17T17:47:58.953Z,66.38
2023-02-17T17:51:01.913Z,44.30
2023-02-17T17:54:07.034Z,55.07
2023-02-17T17:57:10.826Z,56.85
2023-02-17T18:00:18.308Z,52.88
2023-02-17T18:03:21.154Z,50.80
2023-02-17T18:06:35.588Z,57.13
2023-02-17T18:09:39.769Z,43.17
2023-02-17T18:12:45.803Z,57.03
2023-02-17T18:15:49.434Z,58.22
2023-02-17T18:18:52.960Z,364.45
2023-02-17T18:21:56.667Z,101.28
2023-02-17T18:24:59.678Z,55.53
2023-02-17T18:28:02.459Z,43.28
2023-02-17T18:31:10.512Z,44.75
2023-02-17T18:34:14.445Z,44.22
2023-02-17T18:37:17.546Z,45.47
2023-02-17T18:40:22.225Z,40.73
2023-02-17T18:43:25.266Z,50.33
2023-02-17T18:46:28.926Z,38.38
2023-02-17T18:49:32.261Z,36.38
2023-02-17T18:52:38.078Z,30.67
2023-02-17T18:55:41.104Z,31.27
2023-02-17T18:58:44.320Z,32.33
2023-02-17T19:01:47.497Z,38.00
2023-02-17T19:04:55.195Z,37.65
2023-02-17T19:07:58.822Z,40.03
2023-02-17T19:11:03.251Z,44.23
2023-02-17T19:14:06.577Z,37.40
2023-02-17T19:17:12.002Z,37.60
2023-02-17T19:20:17.271Z,34.38
2023-02-17T19:23:20.330Z,67.93
2023-02-17T19:26:23.283Z,70.97
2023-02-17T19:29:26.547Z,78.45
2023-02-17T19:32:29.663Z,48.30
2023-02-17T19:35:32.698Z,42.28
2023-02-17T19:38:36.010Z,33.83
2023-02-17T19:41:39.168Z,26.37
2023-02-17T19:44:42.564Z,28.77
2023-02-17T19:47:46.457Z,23.85
2023-02-17T19:50:50.239Z,22.63
2023-02-17T19:53:53.270Z,21.30
2023-02-17T19:56:56.000Z,21.33
2023-02-17T19:59:59.213Z,25.67
2023-02-17T20:03:02.296Z,26.17
2023-02-17T20:06:11.645Z,22.02
2023-02-17T20:09:19.918Z,21.60
2023-02-17T20:12:23.097Z,20.40
2023-02-17T20:15:26.325Z,17.45
2023-02-17T20:18:29.897Z,18.23
2023-02-17T20:21:36.678Z,16.80
2023-02-17T20:24:42.194Z,18.17
2023-02-17T20:27:45.678Z,16.70
2023-02-17T20:30:49.170Z,16.17
2023-02-17T20:33:53.043Z,18.83
2023-02-17T20:36:57.222Z,17.65
2023-02-17T20:40:00.870Z,15.53
2023-02-17T20:43:05.249Z,15.53
2023-02-17T20:46:13.283Z,17.88
2023-02-17T20:49:16.193Z,14.85
2023-02-17T20:52:19.361Z,14.45
2023-02-17T20:55:22.218Z,15.57
2023-02-17T20:58:25.432Z,15.90
2023-02-17T21:01:29.069Z,14.45
2023-02-17T21:04:32.267Z,15.88
2023-02-17T21:07:35.321Z,14.75
2023-02-17T21:10:40.151Z,18.15
2023-02-17T21:13:43.229Z,14.40
2023-02-17T21:16:47.948Z,17.58
2023-02-17T21:19:51.315Z,18.52
2023-02-17T21:22:54.563Z,18.45
2023-02-17T21:25:57.490Z,15.98
2023-02-17T21:29:00.594Z,14.73
2023-02-17T21:32:04.972Z,18.60
2023-02-17T21:35:11.505Z,16.90
2023-02-17T21:38:17.003Z,18.38
2023-02-17T21:41:23.030Z,18.30
2023-02-17T21:44:44.591Z,19.40
2023-02-17T21:47:47.469Z,19.08
2023-02-17T21:50:50.215Z,20.08
2023-02-17T21:53:53.857Z,23.25
2023-02-17T21:56:56.765Z,21.33
2023-02-17T21:59:59.550Z,22.17
2023-02-17T22:03:02.365Z,24.08
2023-02-17T22:06:17.548Z,22.52
2023-02-17T22:09:20.656Z,29.70
2023-02-17T22:12:23.516Z,26.50
2023-02-17T22:15:26.548Z,25.70
2023-02-17T22:18:29.652Z,26.70
2023-02-17T22:21:32.595Z,25.35
2023-02-17T22:24:35.469Z,29.10
2023-02-17T22:27:38.168Z,29.50
2023-02-17T22:30:41.011Z,26.73
2023-02-17T22:33:44.185Z,28.92
2023-02-17T22:36:46.998Z,28.25
2023-02-17T22:39:56.579Z,28.20
2023-02-17T22:42:59.740Z,30.53
2023-02-17T22:46:03.154Z,34.83
2023-02-17T22:49:06.258Z,30.10
2023-02-17T22:52:09.517Z,32.03
2023-02-17T22:55:12.250Z,30.85
2023-02-17T22:58:15.181Z,39.78
2023-02-17T23:01:21.024Z,36.70
2023-02-17T23:04:23.992Z,35.83
2023-02-17T23:07:26.806Z,35.38
2023-02-17T23:10:29.965Z,36.67
2023-02-17T23:13:34.313Z,40.50
2023-02-17T23:16:37.315Z,38.13
2023-02-17T23:19:42.380Z,33.03
2023-02-17T23:22:45.457Z,37.72
2023-02-17T23:25:54.367Z,45.38
2023-02-17T23:28:57.336Z,41.15
2023-02-17T23:32:00.714Z,38.47
2023-02-17T23:35:04.389Z,44.75
2023-02-17T23:38:08.492Z,44.05
2023-02-17T23:41:11.471Z,43.80
2023-02-17T23:44:15.885Z,45.28
2023-02-17T23:47:18.679Z,41.30
2023-02-17T23:50:21.638Z,40.28
2023-02-17T23:53:25.025Z,45.55
2023-02-17T23:56:33.515Z,46.42
2023-02-17T23:59:37.791Z,46.00
